Data for 02/25/2005

Time Sea-Level Adjusted Pressure Absolute Pressure Temperature Relative Humidity Dew Point   
(mb) (inHg) (mb) (inHg) (C) (F) (%) (C) (F)
00:05 1019 30.09 848 25.04 0.4 32.7 43 -10.8 12.6
00:10 1019 30.09 848 25.04 0.7 33.2 43 -10.5 13
00:15 1019 30.09 848 25.04 0.4 32.7 44 -10.5 13.1
00:20 1019 30.09 848 25.04 0.2 32.4 45 -10.3 13.4
00:25 1019 30.09 848 25.04 -0.1 31.9 44 -10.9 12.4
00:30 1019 30.09 848 25.04 0.3 32.5 43 -11 12.2
00:35 1019 30.09 848 25.04 0.2 32.4 44 -10.6 12.9
00:40 1019 30.09 848 25.04 0.3 32.5 43 -10.9 12.3
00:45 1019 30.09 848 25.04 0.4 32.7 43 -10.8 12.6
00:50 1019 30.09 848 25.04 0.2 32.4 45 -10.5 13.1
00:55 1019 30.09 848 25.04 0 32 45 -10.6 12.9
01:00 1019 30.09 848 25.04 0.1 32.2 44 -10.8 12.5
01:05 1019 30.09 848 25.04 0.1 32.2 46 -10.2 13.6
01:10 1019 30.09 848 25.04 -0.6 31 49 -10.1 13.8
01:15 1019 30.09 848 25.04 -0.5 31.1 47 -10.6 12.9
01:20 1019 30.09 848 25.04 0.2 32.4 44 -10.7 12.7
01:25 1019 30.09 848 25.04 0.2 32.3 45 -10.6 13
01:30 1019 30.09 848 25.04 0.2 32.3 44 -10.8 12.6
01:35 1019 30.09 848 25.04 0.4 32.7 44 -10.4 13.2
01:40 1019 30.09 848 25.04 0.1 32.2 46 -10.2 13.6
01:45 1019 30.09 848 25.04 -0.3 31.5 46 -10.5 13.1
01:50 1019 30.09 848 25.04 -0.2 31.6 46 -10.5 13.1
01:55 1019 30.09 848 25.04 0.2 32.3 43 -11.1 12.1
02:00 1019 30.09 848 25.04 0.6 33.2 42 -10.9 12.4
02:05 1019 30.09 848 25.04 0.9 33.6 44 -10.1 13.9
02:10 1019 30.09 848 25.04 0.6 33 42 -10.8 12.5
02:15 1019 30.09 848 25.04 0.8 33.4 42 -10.6 13
02:20 1019 30.09 848 25.04 0.5 32.9 44 -10.4 13.3
02:25 1019 30.09 848 25.04 0 32.1 45 -10.7 12.8
02:30 1019 30.09 848 25.04 0.1 32.2 45 -10.5 13.1
02:35 1019 30.09 848 25.04 -0 31.9 45 -10.5 13.1
02:40 1019 30.09 848 25.04 0.1 32.1 44 -10.7 12.8
02:45 1019 30.09 848 25.04 0.1 32.2 44 -10.7 12.8
02:50 1019 30.09 848 25.04 0.1 32.2 44 -10.6 12.8
02:55 1019 30.09 848 25.04 -0 31.9 45 -10.6 12.9
03:00 1019 30.09 848 25.04 -0 32 45 -10.7 12.8
03:05 1019 30.09 848 25.04 -0.2 31.7 46 -10.4 13.2
03:10 1019 30.09 848 25.04 -0.5 31.1 47 -10.5 13.2
03:15 1019 30.09 848 25.04 -0.6 31 47 -10.6 13
03:20 1019 30.09 848 25.04 -0.6 30.9 47 -10.6 12.9
03:25 1018 30.06 848 25.04 -0.5 31.1 47 -10.5 13.2
03:30 1018 30.06 848 25.04 -0.9 30.5 48 -10.6 13
03:35 1018 30.06 848 25.04 -0.5 31.1 45 -10.9 12.3
03:40 1018 30.06 848 25.04 -0.1 31.8 45 -10.6 12.8
03:45 1018 30.06 848 25.04 -0.4 31.3 47 -10.4 13.3
03:50 1018 30.06 848 25.04 -0.8 30.5 47 -10.8 12.6
03:55 1018 30.06 848 25.04 -0.6 30.9 47 -10.5 13.1
04:00 1018 30.06 848 25.04 -1 30.2 47 -10.8 12.6
04:05 1018 30.06 847 25.01 -0.5 31 45 -11 12.2
04:10 1018 30.06 847 25.01 -0.3 31.4 46 -10.5 13.1
04:15 1018 30.06 848 25.04 -0.6 31 46 -10.9 12.4
04:20 1018 30.06 847 25.01 -0.5 31.1 47 -10.5 13
04:25 1018 30.06 848 25.04 -0.6 31 47 -10.6 13
04:30 1018 30.06 848 25.04 -0.8 30.6 47 -10.7 12.7
04:35 1018 30.06 847 25.01 -0.6 31 46 -10.8 12.6
04:40 1018 30.06 847 25.01 -0.7 30.8 47 -10.6 13
04:45 1018 30.06 847 25.01 -1.1 30.1 49 -10.6 12.9
04:50 1018 30.06 848 25.04 -1.3 29.6 49 -10.7 12.8
04:55 1018 30.06 848 25.04 -1.6 29.1 51 -10.5 13
05:00 1018 30.06 847 25.01 -1.7 29 51 -10.6 12.8
05:05 1018 30.06 847 25.01 -1.7 28.9 51 -10.6 12.9
05:10 1018 30.06 847 25.01 -1.7 28.9 51 -10.6 12.9
05:15 1018 30.06 847 25.01 -1.7 28.9 50 -10.7 12.7
05:20 1018 30.06 847 25.01 -1.7 29 50 -10.8 12.5
05:25 1018 30.06 847 25.01 -1.7 29 50 -10.7 12.8
05:30 1018 30.06 847 25.01 -1.7 28.9 50 -10.7 12.7
05:35 1018 30.06 847 25.01 -1.9 28.5 52 -10.5 13.1
05:40 1018 30.06 847 25.01 -2.1 28.2 52 -10.7 12.7
05:45 1018 30.06 847 25.01 -2.2 28.1 53 -10.6 12.9
05:50 1018 30.06 847 25.01 -2.6 27.3 55 -10.5 13
05:55 1018 30.06 847 25.01 -2.7 27.1 54 -10.7 12.7
06:00 1018 30.06 847 25.01 -2.7 27.1 55 -10.6 12.9
06:05 1018 30.06 847 25.01 -2.8 27 55 -10.7 12.8
06:10 1018 30.06 847 25.01 -2.6 27.3 54 -10.7 12.7
06:15 1018 30.06 847 25.01 -2.2 28 52 -10.8 12.6
06:20 1018 30.06 847 25.01 -1.9 28.6 51 -10.8 12.6
06:25 1018 30.06 847 25.01 -1.5 29.3 48 -11.2 11.8
06:30 1018 30.06 847 25.01 -0.9 30.3 46 -11.2 11.9
06:35 1018 30.06 847 25.01 -1 30.2 47 -11 12.1
06:40 1018 30.06 847 25.01 -0.9 30.3 47 -10.8 12.6
06:45 1018 30.06 847 25.01 -1.5 29.3 49 -10.9 12.5
06:50 1018 30.06 847 25.01 -1.2 29.8 47 -11.2 11.8
06:55 1018 30.06 847 25.01 -1.3 29.7 48 -11.1 12.1
07:00 1018 30.06 847 25.01 -1.6 29.1 49 -10.9 12.4
07:05 1018 30.06 847 25.01 -1.9 28.5 50 -11 12.3
07:10 1018 30.06 847 25.01 -2 28.3 50 -11.2 11.9
07:15 1018 30.06 847 25.01 -2.4 27.8 51 -11.1 12.1
07:20 1018 30.06 847 25.01 -1.9 28.7 49 -11.3 11.6
07:25 1018 30.06 847 25.01 -1.9 28.5 49 -11.3 11.7
07:30 1018 30.06 847 25.01 -1.6 29.1 49 -11 12.1
07:35 1018 30.06 847 25.01 -1.8 28.7 50 -11 12.2
07:40 1018 30.06 847 25.01 -2 28.4 50 -11.2 11.9
07:45 1018 30.06 847 25.01 -1.9 28.6 49 -11.2 11.8
07:50 1018 30.06 847 25.01 -1.8 28.7 48 -11.4 11.5
07:55 1018 30.06 847 25.01 -1.7 28.9 49 -11.2 11.9
08:00 1018 30.06 847 25.01 -1.8 28.7 50 -10.9 12.3
08:05 1018 30.06 847 25.01 -1.9 28.6 50 -11.1 12.1
08:10 1018 30.06 847 25.01 -1.8 28.8 50 -10.9 12.3
08:15 1018 30.06 847 25.01 -1.4 29.5 49 -10.9 12.4
08:20 1018 30.06 847 25.01 -1.2 29.8 49 -10.7 12.8
08:25 1018 30.06 847 25.01 -0.9 30.4 46 -11 12.2
08:30 1018 30.06 847 25.01 -0.3 31.4 46 -10.7 12.8
08:35 1018 30.06 847 25.01 0.1 32.2 45 -10.6 13
08:40 1018 30.06 847 25.01 0.6 33.1 42 -10.9 12.5
08:45 1018 30.06 847 25.01 1.1 33.9 40 -11 12.3
08:50 1018 30.06 847 25.01 1.5 34.7 39 -11 12.2
08:55 1018 30.06 847 25.01 2.1 35.8 36 -11.4 11.4
09:00 1018 30.06 847 25.01 2.3 36.1 36 -11.2 11.8
09:05 1018 30.06 847 25.01 2.6 36.6 35 -11.3 11.7
09:10 1018 30.06 847 25.01 3.3 37.9 34 -11.1 12.1
09:15 1018 30.06 847 25.01 3.8 38.9 34 -10.8 12.6
09:20 1018 30.06 847 25.01 4 39.2 33 -10.9 12.4
09:25 1018 30.06 847 25.01 4.3 39.8 32 -10.9 12.4
09:30 1018 30.06 847 25.01 3.9 39 34 -10.7 12.7
09:35 1018 30.06 847 25.01 3.9 38.9 34 -10.6 13
09:40 1018 30.06 847 25.01 3.7 38.6 34 -11 12.2
09:45 1018 30.06 847 25.01 3.9 39 34 -10.4 13.2
09:50 1018 30.06 847 25.01 4.2 39.5 34 -10.3 13.4
09:55 1018 30.06 847 25.01 5.1 41.2 32 -10.3 13.4
10:00 1018 30.06 847 25.01 5.4 41.7 33 -9.6 14.8
10:05 1018 30.06 847 25.01 5.1 41.3 32 -10.2 13.6
10:10 1018 30.06 847 25.01 5.4 41.7 32 -9.9 14.2
10:15 1018 30.06 847 25.01 5.5 42 32 -10 13.9
10:20 1018 30.06 847 25.01 6 42.8 31 -10.1 13.9
10:25 1018 30.06 847 25.01 6.4 43.5 30 -10.1 13.7
10:30 1018 30.06 847 25.01 6.4 43.5 29 -10.4 13.3
10:35 1018 30.06 847 25.01 6.6 43.9 28 -10.8 12.5
10:40 1018 30.06 847 25.01 6.1 42.9 30 -10.3 13.5
10:45 1018 30.06 847 25.01 5 40.9 32 -10.6 13
10:50 1018 30.06 847 25.01 5.4 41.7 30 -10.8 12.6
10:55 1018 30.06 847 25.01 5.6 42.1 31 -10.3 13.5
11:00 1018 30.06 847 25.01 5.5 41.9 33 -9.6 14.8
11:05 1018 30.06 847 25.01 5.4 41.7 34 -9.4 15
11:10 1018 30.06 847 25.01 5.6 42.1 34 -8.9 15.9
11:15 1017 30.03 847 25.01 6.1 42.9 32 -9.6 14.7
11:20 1017 30.03 847 25.01 6.9 44.3 31 -9.3 15.3
11:25 1017 30.03 847 25.01 7.2 44.9 30 -9.2 15.5
11:30 1017 30.03 847 25.01 6.5 43.6 32 -9.2 15.4
11:35 1017 30.03 847 25.01 6.4 43.5 32 -9.3 15.3
11:40 1017 30.03 846 24.98 7.4 45.3 30 -9.1 15.7
11:45 1017 30.03 846 24.98 8.6 47.5 29 -8.5 16.7
11:50 1017 30.03 846 24.98 8.8 47.8 28 -8.7 16.3
11:55 1017 30.03 846 24.98 8.3 47 30 -8.4 16.9
12:00 1017 30.03 846 24.98 8.3 47 30 -8.1 17.4
12:05 1017 30.03 846 24.98 8.2 46.8 30 -8.6 16.6
12:10 1017 30.03 846 24.98 7.9 46.2 31 -8.2 17.2
12:15 1017 30.03 846 24.98 8.6 47.4 29 -8.5 16.6
12:20 1017 30.03 846 24.98 9.7 49.5 27 -8.4 17
12:25 1017 30.03 846 24.98 9.8 49.6 28 -7.8 18
12:30 1017 30.03 846 24.98 9.8 49.6 27 -8.5 16.7
12:35 1017 30.03 846 24.98 9.7 49.5 27 -8.5 16.7
12:40 1017 30.03 846 24.98 9.6 49.2 26 -8.8 16.2
12:45 1017 30.03 846 24.98 9.5 49.1 26 -8.8 16.1
12:50 1016 30 846 24.98 9.7 49.5 28 -8.1 17.5
12:55 1016 30 846 24.98 10.6 51 23 -9.5 15
13:00 1016 30 846 24.98 10.8 51.4 24 -9.3 15.3
13:05 1016 30 845 24.95 11.1 51.9 25 -8.3 17.1
13:10 1016 30 845 24.95 11.1 51.9 24 -8.5 16.6
13:15 1016 30 845 24.95 10.9 51.5 24 -8.8 16.2
13:20 1016 30 845 24.95 10.9 51.7 23 -9.4 15.1
13:25 1016 30 845 24.95 9.6 49.2 26 -9 15.8
13:30 1016 30 845 24.95 9.8 49.6 25 -9.5 14.8
13:35 1016 30 845 24.95 11.3 52.4 23 -9 15.9
13:40 1016 30 845 24.95 11.5 52.7 23 -9.1 15.7
13:45 1016 30 845 24.95 11.4 52.5 23 -9.1 15.5
13:50 1016 30 845 24.95 11.8 53.2 22 -9.1 15.6
13:55 1016 30 845 24.95 11.4 52.6 23 -8.9 16
14:00 1016 30 845 24.95 11.8 53.3 22 -9.1 15.7
14:05 1016 30 845 24.95 11.9 53.5 22 -8.9 16
14:10 1016 30 845 24.95 12 53.6 22 -9 15.7
14:15 1016 30 845 24.95 12.5 54.5 21 -9.5 15
14:20 1016 30 845 24.95 12.1 53.7 22 -9.1 15.6
14:25 1016 30 845 24.95 12.2 53.9 22 -9.2 15.5
14:30 1015 29.97 845 24.95 12.6 54.6 20 -9.5 14.9
14:35 1015 29.97 845 24.95 12.1 53.7 21 -9.7 14.6
14:40 1015 29.97 845 24.95 11.6 53 21 -9.9 14.2
14:45 1015 29.97 845 24.95 12.6 54.6 20 -9.6 14.8
14:50 1015 29.97 844 24.92 12.9 55.2 19 -9.9 14.1
14:55 1015 29.97 844 24.92 12.8 55 20 -9.7 14.5
15:00 1015 29.97 844 24.92 12.3 54.2 21 -9.3 15.3
15:05 1015 29.97 844 24.92 11.6 52.9 21 -9.9 14.2
15:10 1015 29.97 844 24.92 12.5 54.4 20 -9.9 14.2
15:15 1015 29.97 844 24.92 12.9 55.2 19 -10.3 13.5
15:20 1015 29.97 844 24.92 12.5 54.5 20 -9.7 14.5
15:25 1015 29.97 844 24.92 12.2 53.9 21 -9.4 15.1
15:30 1015 29.97 844 24.92 12.3 54.2 20 -9.9 14.1
15:35 1015 29.97 844 24.92 12.5 54.4 19 -10.4 13.3
15:40 1015 29.97 844 24.92 12.9 55.1 19 -10.4 13.3
15:45 1015 29.97 844 24.92 13.2 55.7 18 -10.6 12.9
15:50 1015 29.97 844 24.92 13.3 55.9 18 -10.4 13.4
15:55 1015 29.97 844 24.92 13.2 55.8 18 -10.8 12.6
16:00 1015 29.97 844 24.92 13.5 56.2 18 -10.5 13.2
16:05 1015 29.97 844 24.92 13 55.3 16 -12.6 9.3
16:10 1015 29.97 844 24.92 12.6 54.6 18 -11.3 11.6
16:15 1015 29.97 844 24.92 12.6 54.6 16 -12.7 9.2
16:20 1015 29.97 844 24.92 12.3 54.1 16 -12.8 8.9
16:25 1015 29.97 844 24.92 12.3 54.2 17 -12.2 10.1
16:30 1015 29.97 844 24.92 12.5 54.6 18 -11.1 12
16:35 1015 29.97 844 24.92 12.6 54.7 18 -11.3 11.7
16:40 1015 29.97 844 24.92 12.6 54.6 17 -11.7 11
16:45 1015 29.97 844 24.92 13 55.5 16 -12.1 10.3
16:50 1015 29.97 844 24.92 13.1 55.6 16 -12.4 9.7
16:55 1015 29.97 844 24.92 12.7 54.8 19 -10.1 13.8
17:00 1015 29.97 844 24.92 12.3 54.1 19 -10.4 13.3
17:05 1014 29.94 844 24.92 12.3 54.1 20 -9.8 14.4
17:10 1014 29.94 844 24.92 12.1 53.8 21 -9.5 14.9
17:15 1015 29.97 844 24.92 11.9 53.3 20 -10.2 13.7
17:20 1015 29.97 844 24.92 11.2 52.2 24 -8.8 16.1
17:25 1015 29.97 844 24.92 10.8 51.4 23 -9.3 15.2
17:30 1014 29.94 844 24.92 10.4 50.6 25 -8.7 16.4
17:35 1014 29.94 844 24.92 9.9 49.9 25 -9 15.7
17:40 1014 29.94 844 24.92 9.7 49.5 26 -8.9 16
17:45 1014 29.94 844 24.92 9.3 48.7 30 -7.4 18.7
17:50 1014 29.94 844 24.92 8.7 47.7 29 -8.3 17
17:55 1014 29.94 844 24.92 8.5 47.3 29 -8.6 16.5
18:00 1014 29.94 844 24.92 8.1 46.6 30 -8.4 16.8
18:05 1014 29.94 844 24.92 7.4 45.4 29 -9.4 15.2
18:10 1014 29.94 844 24.92 7 44.5 30 -9.5 15
18:15 1014 29.94 844 24.92 6.4 43.6 30 -10 14
18:20 1014 29.94 844 24.92 6.2 43.1 30 -10.1 13.8
18:25 1014 29.94 844 24.92 5.9 42.6 31 -9.8 14.3
18:30 1014 29.94 844 24.92 5.5 41.8 33 -9.7 14.5
18:35 1014 29.94 844 24.92 5 41.1 35 -9.3 15.2
18:40 1014 29.94 844 24.92 4.9 40.9 34 -9.7 14.6
18:45 1014 29.94 844 24.92 4.5 40.2 35 -9.7 14.5
18:50 1014 29.94 844 24.92 4 39.2 35 -10 13.9
18:55 1014 29.94 844 24.92 3.8 38.9 34 -10.7 12.7
19:00 1014 29.94 844 24.92 4.1 39.3 34 -10.6 12.9
19:05 1014 29.94 844 24.92 4.1 39.4 34 -10.3 13.4
19:10 1014 29.94 844 24.92 3.7 38.7 37 -9.7 14.5
19:15 1014 29.94 844 24.92 3.4 38.1 35 -10.5 13
19:20 1014 29.94 844 24.92 3.6 38.5 34 -10.8 12.6
19:25 1014 29.94 844 24.92 4 39.3 32 -11.2 11.8
19:30 1014 29.94 844 24.92 4.1 39.4 30 -11.8 10.7
19:35 1014 29.94 844 24.92 4.4 39.9 28 -12.5 9.5
19:40 1014 29.94 844 24.92 4.4 39.9 30 -11.7 10.9
19:45 1014 29.94 844 24.92 4 39.1 32 -11.4 11.4
19:50 1014 29.94 844 24.92 3.6 38.5 32 -11.5 11.4
19:55 1014 29.94 844 24.92 3.4 38.1 31 -12.3 9.8
20:00 1014 29.94 844 24.92 4.1 39.5 29 -12.6 9.4
20:05 1014 29.94 844 24.92 4.1 39.4 30 -11.9 10.5
20:10 1014 29.94 844 24.92 3.6 38.6 32 -11.8 10.8
20:15 1014 29.94 844 24.92 3.4 38.1 32 -11.8 10.8
20:20 1014 29.94 844 24.92 3.2 37.8 32 -11.9 10.6
20:25 1014 29.94 844 24.92 3.2 37.7 33 -11.8 10.8
20:30 1014 29.94 844 24.92 3.1 37.5 33 -11.9 10.7
20:35 1014 29.94 844 24.92 2.9 37.2 33 -11.8 10.8
20:40 1014 29.94 844 24.92 2.9 37.2 33 -12 10.4
20:45 1014 29.94 844 24.92 2.8 37.1 34 -11.6 11
20:50 1014 29.94 844 24.92 2.8 37 34 -11.7 11
20:55 1014 29.94 844 24.92 2.8 37 34 -11.6 11.1
21:00 1014 29.94 844 24.92 2.7 36.8 34 -11.7 10.9
21:05 1014 29.94 844 24.92 2.7 36.9 33 -12 10.4
21:10 1014 29.94 844 24.92 2.7 36.9 33 -12.1 10.3
21:15 1014 29.94 844 24.92 2.8 37 32 -12.2 10.1
21:20 1014 29.94 844 24.92 2.8 37 32 -12.3 9.8
21:25 1014 29.94 844 24.92 2.7 36.9 33 -12.1 10.3
21:30 1014 29.94 844 24.92 2.5 36.6 33 -12 10.3
21:35 1014 29.94 844 24.92 2.6 36.7 33 -12.1 10.1
21:40 1014 29.94 844 24.92 2.6 36.6 33 -12.2 10.1
21:45 1014 29.94 844 24.92 2.7 36.8 32 -12.3 9.9
21:50 1014 29.94 844 24.92 2.5 36.5 34 -11.9 10.6
21:55 1014 29.94 844 24.92 2.2 36 34 -12 10.4
22:00 1014 29.94 844 24.92 2.1 35.8 35 -11.8 10.7
22:05 1014 29.94 844 24.92 2.1 35.7 35 -12 10.4
22:10 1015 29.97 844 24.92 2.3 36.1 33 -12.3 9.9
22:15 1015 29.97 844 24.92 2.4 36.3 34 -12.1 10.2
22:20 1015 29.97 844 24.92 2.5 36.6 33 -12.2 10
22:25 1015 29.97 844 24.92 2.7 36.9 32 -12.4 9.7
22:30 1015 29.97 844 24.92 2.7 36.9 33 -12.2 10.1
22:35 1014 29.94 844 24.92 2.7 36.9 32 -12.3 9.9
22:40 1015 29.97 844 24.92 2.9 37.1 31 -12.7 9.2
22:45 1014 29.94 844 24.92 3.2 37.7 31 -12.5 9.6
22:50 1015 29.97 844 24.92 3.2 37.8 31 -12.4 9.7
22:55 1015 29.97 844 24.92 3.2 37.8 31 -12.3 9.9
23:00 1015 29.97 844 24.92 3 37.5 34 -11.5 11.3
23:05 1015 29.97 844 24.92 2.9 37.3 32 -12.2 10.1
23:10 1015 29.97 844 24.92 2.6 36.6 33 -12.2 10
23:15 1015 29.97 844 24.92 2.3 36.2 33 -12.3 9.9
23:20 1015 29.97 844 24.92 2.2 36 34 -12.1 10.3
23:25 1015 29.97 844 24.92 1.6 35 39 -10.9 12.4
23:30 1015 29.97 844 24.92 1.7 35.1 38 -11.3 11.6
23:35 1015 29.97 844 24.92 1.6 34.9 40 -10.5 13.1
23:40 1015 29.97 844 24.92 1.3 34.4 38 -11.3 11.6
23:45 1015 29.97 844 24.92 1.5 34.7 38 -11.4 11.5
23:50 1015 29.97 844 24.92 1.3 34.3 38 -11.4 11.4
23:55 1015 29.97 844 24.92 1.1 33.9 38 -11.6 11.1
24:00 1015 29.97 844 24.92 1 33.7 38 -11.7 10.9